Terminal Aerodrome Forecast
Issued by NWS

Home | Current Version | Previous Version | Text Only | Print | Product List | Glossary On
Versions: 1 2 3 4 5 6 7 8 9 10 11 12 13 14
000
FTAK31 PAJN 301400 AAA
TAFAYA
TAF AMD
PAYA 301406Z 3014/3112 34007KT 6SM -RA BR OVC030
     FM301600 36006KT 5SM -RA BR BKN025 OVC035
     FM302100 11006KT P6SM -RA SCT015 OVC030
     FM310600 VRB06KT P6SM -SHRA SCT015 OVC050
      AMD LTD TO CLD VIS AND WIND 3101/3110=

USA.gov is the U.S. government's official web portal to all federal, state and local government web resources and services.